createdAt,value
2018-12-14T00:01:55.006Z,22.73
2018-12-14T00:07:04.391Z,23.12
2018-12-14T00:12:13.536Z,22.89
2018-12-14T00:17:22.970Z,24.19
2018-12-14T00:22:32.053Z,23.65
2018-12-14T00:27:41.455Z,23.55
2018-12-14T00:32:50.520Z,24.82
2018-12-14T00:37:59.831Z,27.67
2018-12-14T00:43:08.901Z,26.41
2018-12-14T00:48:18.214Z,25.63
2018-12-14T00:53:27.381Z,28.72
2018-12-14T00:58:36.832Z,26.28
2018-12-14T01:03:45.953Z,30.71
2018-12-14T01:08:55.245Z,28.31
2018-12-14T01:14:04.439Z,30.68
2018-12-14T01:19:13.858Z,32.43
2018-12-14T01:24:23.046Z,30.65
2018-12-14T01:29:32.333Z,32.41
2018-12-14T01:34:41.424Z,31.65
2018-12-14T01:39:50.753Z,29.81
2018-12-14T01:44:59.848Z,32.42
2018-12-14T01:50:09.278Z,28.71
2018-12-14T01:55:18.445Z,32.34
2018-12-14T02:00:27.955Z,29.41
2018-12-14T02:05:37.032Z,29.90
2018-12-14T02:10:46.329Z,32.72
2018-12-14T02:15:55.442Z,31.05
2018-12-14T02:21:04.826Z,32.11
2018-12-14T02:26:14.036Z,32.62
2018-12-14T02:31:23.504Z,35.48
2018-12-14T02:36:32.513Z,33.03
2018-12-14T02:41:41.862Z,31.75
2018-12-14T02:46:51.038Z,33.25
2018-12-14T02:52:00.437Z,32.56
2018-12-14T02:57:09.544Z,30.79
2018-12-14T03:02:18.861Z,33.02
2018-12-14T03:07:28.029Z,31.43
2018-12-14T03:12:37.366Z,34.20
2018-12-14T03:17:46.460Z,31.92
2018-12-14T03:22:55.728Z,32.62
2018-12-14T03:28:04.802Z,32.20
2018-12-14T03:33:14.202Z,35.21
2018-12-14T03:38:23.296Z,34.18
2018-12-14T03:43:32.644Z,29.97
2018-12-14T03:48:41.752Z,29.53
2018-12-14T03:53:51.187Z,30.62
2018-12-14T03:59:00.310Z,28.03
2018-12-14T04:04:09.654Z,27.83
2018-12-14T04:09:18.867Z,26.70
2018-12-14T04:14:28.294Z,26.88
2018-12-14T04:19:37.395Z,27.42
2018-12-14T04:24:46.716Z,26.41
2018-12-14T04:29:56.002Z,26.30
2018-12-14T04:35:05.173Z,27.77
2018-12-14T04:40:14.288Z,24.75
2018-12-14T04:45:23.625Z,25.57
2018-12-14T04:50:32.733Z,25.67
2018-12-14T04:55:42.074Z,26.95
2018-12-14T05:00:51.253Z,26.88
2018-12-14T05:06:00.626Z,26.17
2018-12-14T05:11:09.714Z,25.54
2018-12-14T05:16:19.057Z,25.75
2018-12-14T05:21:28.206Z,26.36
2018-12-14T05:26:37.548Z,26.89
2018-12-14T05:31:46.799Z,26.69
2018-12-14T05:36:56.041Z,28.52
2018-12-14T05:42:05.149Z,25.65
2018-12-14T05:47:14.447Z,27.42
2018-12-14T05:52:23.541Z,27.86
2018-12-14T05:57:32.892Z,28.49
2018-12-14T06:02:42.012Z,28.97
2018-12-14T06:07:51.328Z,27.77
2018-12-14T06:13:00.444Z,29.14
2018-12-14T06:18:09.705Z,29.09
2018-12-14T06:23:18.812Z,30.04
2018-12-14T06:28:28.162Z,29.15
2018-12-14T06:33:37.278Z,28.69
2018-12-14T06:38:46.624Z,29.70
2018-12-14T06:43:55.697Z,32.85
2018-12-14T06:49:05.136Z,29.00
2018-12-14T06:54:14.230Z,30.41
2018-12-14T06:59:23.608Z,31.66
2018-12-14T07:04:32.733Z,28.96
2018-12-14T07:09:42.069Z,31.11
2018-12-14T07:14:51.254Z,32.00
2018-12-14T07:20:00.606Z,28.79
2018-12-14T07:25:09.708Z,31.88
2018-12-14T07:30:19.023Z,29.64
2018-12-14T07:35:30.645Z,30.27
2018-12-14T07:40:29.919Z,33.04
2018-12-14T07:45:39.047Z,31.32
2018-12-14T07:50:48.964Z,31.90
2018-12-14T07:55:58.060Z,30.87
2018-12-14T08:01:07.398Z,33.37
2018-12-14T08:06:16.528Z,31.07
2018-12-14T08:11:25.794Z,30.27
2018-12-14T08:16:34.961Z,32.46
2018-12-14T08:21:44.542Z,32.91
2018-12-14T08:26:53.701Z,31.42
2018-12-14T08:32:03.109Z,29.72
2018-12-14T08:37:12.295Z,28.30
2018-12-14T08:42:21.853Z,30.09
2018-12-14T08:47:30.987Z,30.09
2018-12-14T08:52:41.040Z,29.60
2018-12-14T08:57:49.834Z,33.22
2018-12-14T09:02:59.273Z,29.00
2018-12-14T09:08:08.344Z,30.38
2018-12-14T09:13:17.635Z,28.56
2018-12-14T09:18:26.730Z,28.36
2018-12-14T09:23:36.029Z,29.60
2018-12-14T09:28:45.114Z,28.56
2018-12-14T09:33:54.420Z,30.72
2018-12-14T09:39:03.525Z,29.60
2018-12-14T09:44:12.896Z,27.72
2018-12-14T09:49:22.146Z,29.06
2018-12-14T09:54:31.501Z,27.03
2018-12-14T09:59:40.564Z,24.51
2018-12-14T10:04:49.888Z,26.74
2018-12-14T10:09:58.988Z,22.24
2018-12-14T10:15:08.333Z,22.97
2018-12-14T10:20:17.546Z,23.90
2018-12-14T10:25:26.909Z,24.22
2018-12-14T10:30:36.125Z,22.17
2018-12-14T10:35:45.626Z,20.33
2018-12-14T10:40:54.771Z,21.59
2018-12-14T10:46:04.109Z,26.87
2018-12-14T10:51:13.224Z,23.42
2018-12-14T10:56:22.505Z,22.94
2018-12-14T11:01:31.614Z,20.18
2018-12-14T11:06:40.888Z,20.73
2018-12-14T11:11:49.957Z,20.23
2018-12-14T11:16:59.327Z,21.06
2018-12-14T11:22:08.501Z,20.17
2018-12-14T11:27:17.907Z,38.95
2018-12-14T11:32:27.022Z,21.84
2018-12-14T11:37:36.473Z,21.41
2018-12-14T11:42:45.622Z,21.30
2018-12-14T11:47:54.897Z,20.73
2018-12-14T11:53:04.002Z,21.27
2018-12-14T11:58:13.407Z,22.87
2018-12-14T12:03:22.694Z,20.61
2018-12-14T12:08:32.224Z,21.34
2018-12-14T12:13:41.344Z,21.74
2018-12-14T12:18:47.596Z,30.33
2018-12-14T12:23:56.783Z,20.25
2018-12-14T12:29:05.946Z,20.64
2018-12-14T12:34:15.068Z,21.62
2018-12-14T12:39:24.344Z,22.50
2018-12-14T12:44:33.862Z,23.42
2018-12-14T12:49:42.475Z,22.42
2018-12-14T12:54:51.553Z,29.55
2018-12-14T13:00:01.028Z,21.38
2018-12-14T13:05:10.301Z,19.78
2018-12-14T13:10:19.765Z,20.20
2018-12-14T13:15:28.873Z,21.17
2018-12-14T13:20:38.158Z,21.21
2018-12-14T13:25:47.227Z,20.96
2018-12-14T13:30:56.565Z,20.57
2018-12-14T13:36:05.691Z,21.65
2018-12-14T13:41:15.028Z,20.31
2018-12-14T13:46:24.129Z,22.10
2018-12-14T13:51:33.465Z,20.33
2018-12-14T13:56:42.610Z,19.28
2018-12-14T14:01:51.913Z,21.02
2018-12-14T14:07:01.013Z,19.26
2018-12-14T14:12:10.516Z,19.38
2018-12-14T14:17:19.693Z,20.01
2018-12-14T14:22:28.997Z,19.28
2018-12-14T14:27:38.158Z,22.40
2018-12-14T14:32:47.478Z,20.75
2018-12-14T14:37:57.633Z,20.89
2018-12-14T14:43:05.529Z,21.59
2018-12-14T14:48:14.667Z,20.92
2018-12-14T14:58:31.442Z,23.43
2018-12-14T15:03:40.599Z,22.88
2018-12-14T15:08:49.998Z,21.45
2018-12-14T15:13:59.095Z,24.25
2018-12-14T15:19:08.469Z,24.89
2018-12-14T15:24:17.071Z,23.19
2018-12-14T15:29:25.968Z,28.52
2018-12-14T15:34:34.541Z,24.61
2018-12-14T15:39:43.425Z,26.86
2018-12-14T15:44:51.937Z,25.65
2018-12-14T15:50:00.836Z,26.45
2018-12-14T15:55:09.454Z,26.46
2018-12-14T16:00:18.257Z,26.71
2018-12-14T16:05:26.813Z,27.37
2018-12-14T16:10:35.668Z,25.94
2018-12-14T16:15:44.301Z,28.49
2018-12-14T16:20:53.159Z,26.20
2018-12-14T16:26:01.679Z,26.32
2018-12-14T16:31:10.436Z,43.15
2018-12-14T16:36:18.987Z,28.49
2018-12-14T16:41:27.741Z,28.80
2018-12-14T16:46:36.527Z,28.71
2018-12-14T16:51:45.266Z,27.55
2018-12-14T16:56:53.856Z,28.72
2018-12-14T17:02:02.608Z,28.30
2018-12-14T17:07:11.153Z,27.68
2018-12-14T17:12:19.928Z,30.09
2018-12-14T17:17:28.745Z,32.13
2018-12-14T17:22:37.509Z,28.57
2018-12-14T17:27:46.048Z,30.64
2018-12-14T17:32:54.844Z,30.16
2018-12-14T17:38:03.376Z,31.05
2018-12-14T17:43:12.126Z,29.79
2018-12-14T17:48:20.644Z,31.18
2018-12-14T17:53:29.461Z,30.01
2018-12-14T17:58:38.041Z,30.29
2018-12-14T18:03:46.799Z,32.18
2018-12-14T18:08:55.348Z,32.81
2018-12-14T18:14:03.942Z,37.53
2018-12-14T18:19:12.538Z,36.93
2018-12-14T18:24:21.262Z,37.10
2018-12-14T18:29:29.825Z,36.11
2018-12-14T18:34:38.717Z,37.86
2018-12-14T18:39:47.336Z,33.91
2018-12-14T18:44:56.129Z,35.42
2018-12-14T18:50:05.136Z,32.03
2018-12-14T18:55:13.885Z,36.76
2018-12-14T19:00:22.460Z,32.94
2018-12-14T19:05:31.208Z,35.68
2018-12-14T19:10:39.700Z,32.76
2018-12-14T19:15:48.588Z,35.22
2018-12-14T19:20:57.143Z,33.30
2018-12-14T19:26:08.911Z,32.96
2018-12-14T19:31:06.770Z,31.59
2018-12-14T19:36:15.468Z,32.35
2018-12-14T19:41:24.026Z,30.37
2018-12-14T19:46:32.814Z,31.80
2018-12-14T19:51:41.424Z,32.04
2018-12-14T19:56:50.176Z,32.21
2018-12-14T20:01:58.725Z,31.17
2018-12-14T20:07:07.569Z,38.36
2018-12-14T20:12:16.139Z,35.78
2018-12-14T20:17:24.855Z,37.26
2018-12-14T20:22:33.413Z,31.78
2018-12-14T20:27:42.308Z,29.94
2018-12-14T20:32:50.805Z,32.53
2018-12-14T20:37:59.584Z,32.24
2018-12-14T20:43:08.107Z,30.36
2018-12-14T20:48:16.955Z,30.34
2018-12-14T20:53:25.490Z,37.88
2018-12-14T20:58:34.214Z,31.46
2018-12-14T21:03:42.736Z,31.03
2018-12-14T21:08:51.597Z,30.78
2018-12-14T21:14:00.237Z,29.01
2018-12-14T21:19:09.026Z,27.92
2018-12-14T21:24:17.576Z,29.02
2018-12-14T21:29:26.331Z,30.38
2018-12-14T21:34:34.854Z,27.56
2018-12-14T21:39:43.621Z,29.26
2018-12-14T21:44:52.143Z,27.99
2018-12-14T21:50:01.029Z,29.86
2018-12-14T21:55:09.576Z,30.59
2018-12-14T22:00:18.373Z,27.50
2018-12-14T22:05:26.981Z,28.63
2018-12-14T22:10:35.765Z,25.37
2018-12-14T22:15:44.289Z,28.27
2018-12-14T22:20:53.020Z,30.30
2018-12-14T22:26:01.603Z,29.89
2018-12-14T22:31:10.365Z,31.03
2018-12-14T22:36:18.885Z,29.49
2018-12-14T22:41:27.700Z,27.73
2018-12-14T22:46:36.319Z,27.36
2018-12-14T22:51:45.125Z,26.92
2018-12-14T22:56:53.710Z,28.22
2018-12-14T23:02:02.538Z,30.68
2018-12-14T23:07:11.098Z,30.48
2018-12-14T23:12:19.808Z,29.26
2018-12-14T23:17:28.388Z,28.88
2018-12-14T23:22:37.164Z,29.32
2018-12-14T23:27:45.733Z,31.88
2018-12-14T23:32:54.471Z,33.76
2018-12-14T23:38:03.021Z,32.81
2018-12-14T23:43:12.028Z,29.21
2018-12-14T23:48:20.610Z,30.54
2018-12-14T23:53:29.406Z,29.48
2018-12-14T23:58:37.929Z,31.54
